Messwerte Burlington

Temperatur

Temperatur
°C
1593748800 22.00 22.00 18
1593752400 23.00 23.00 17
1593756000 0.00 0.00 17
1593759600 1.00 1.00 17
1593763200 2.00 2.00 17
1593766800 3.00 3.00 18
1593770400 4.00 4.00 21
1593774000 5.00 5.00 23
1593777600 6.00 6.00 23
1593781200 7.00 7.00 21
1593784800 8.00 8.00
1593788400 9.00 9.00 23
1593792000 10.00 10.00 23
1593795600 11.00 11.00 26
1593799200 12.00 12.00 26
1593802800 13.00 13.00 29
1593806400 14.00 14.00 29
1593810000 15.00 15.00 32
1593813600 16.00 16.00 32
1593817200 17.00 17.00 31
1593820800 18.00 18.00 29
1593824400 19.00 19.00 27
1593828000 20.00 20.00 26
1593831600 21.00 21.00

Wir danken unserem Partner:

Aktuellste Messwerte

Wettercharakter
Wetter: unwetterartige Gewitter
Temperatur
19 °C
Feuchtigkeit
85 %
Wind
70 km/hWindrichtung: Nordwest
Böen
95 km/h
Luftdruck
1023 hPa
Messzeit: 3. Juli 2020, 21.00Datenquelle: METAR

Weitere Messstationen in der Nähe

Messstation Temperatur Entfernung
Goodland 24 °C 54 km
Limon 17 °C 119 km
Akron 20 °C 131 km
Lamar 23 °C 135 km
Imperial 23 °C 152 km
La Junta 26 °C 169 km
McCook 24 °C 181 km

Wind

Windrichtung Böen Mittelwind
° km/h km/h
1593748800 22.00 21.00 - 22.00 120° 25
1593752400 23.00 22.00 - 23.00 120° 25
1593756000 0.00 23.00 - 0.00 50° 5
1593759600 1.00 0.00 - 1.00 150° 20
1593763200 2.00 1.00 - 2.00 160° 25
1593766800 3.00 2.00 - 3.00 200° 40
1593770400 4.00 3.00 - 4.00 180° 60 40
1593774000 5.00 4.00 - 5.00 180° 70 45
1593777600 6.00 5.00 - 6.00 10° 85 40
1593781200 7.00 6.00 - 7.00 190° 40 25
1593784800 8.00 7.00 - 8.00
1593788400 9.00 8.00 - 9.00 150° 20
1593792000 10.00 9.00 - 10.00 120° 25
1593795600 11.00 10.00 - 11.00 110° 20
1593799200 12.00 11.00 - 12.00 120° 45 25
1593802800 13.00 12.00 - 13.00 130° 40 25
1593806400 14.00 13.00 - 14.00 110° 40 25
1593810000 15.00 14.00 - 15.00 130° 30
1593813600 16.00 15.00 - 16.00 110° 45 30
1593817200 17.00 16.00 - 17.00 130° 30
1593820800 18.00 17.00 - 18.00 110° 50 30
1593824400 19.00 18.00 - 19.00 110° 25
1593828000 20.00 19.00 - 20.00 130° 30
1593831600 21.00 20.00 - 21.00

Ihre Wetterstation

Fehlt Ihre Wetterstation auf unserem Portal?

Schreiben Sie an network@meteonews.ch

Klima

Wann ist es am wärmsten? Wann regnet es am wenigsten? Unsere Klimadaten geben Auskunft.